Time;durP1;ratioP1;P1;durP2;ratioP2;P2;SDS_P1;SDS_P2;PMS_P1;PMS_P2;Temp;Humidity;BMP_temperature;BMP_pressure;BME280_temperature;BME280_humidity;BME280_pressure;Samples;Min_cycle;Max_cycle;Signal;HPM_P1;HPM_P2
2022/01/30 00:00:41;;;;;;;28.63;5.30;;;7.00;1.00;;;;;;5102759;28;20048;-81
2022/01/30 00:03:08;;;;;;;22.70;4.75;;;;;;;;;;5095976;28;20047;-81
2022/01/30 00:05:34;;;;;;;20.02;4.70;;;7.20;1.00;;;;;;5091997;28;20480;-81
2022/01/30 00:08:01;;;;;;;19.08;3.67;;;;;;;;;;5089468;28;20741;-81
2022/01/30 00:10:29;;;;;;;15.65;3.70;;;;;;;;;;5091137;28;20146;-82
2022/01/30 00:12:59;;;;;;;19.55;4.10;;;;;;;;;;5100379;28;20040;-83
2022/01/30 00:18:44;;;;;;;8.63;2.13;;;;;;;;;;5084212;28;20058;-84
2022/01/30 00:21:13;;;;;;;13.02;2.92;;;;;;;;;;5089085;28;20480;-82
2022/01/30 00:23:49;;;;;;;14.38;3.25;;;;;;;;;;5074722;28;20123;-82
2022/01/30 00:26:17;;;;;;;17.85;3.08;;;;;;;;;;5095092;28;20044;-83
2022/01/30 00:28:43;;;;;;;11.55;2.85;;;;;;;;;;5098598;28;20043;-82
2022/01/30 00:31:10;;;;;;;15.70;3.40;;;;;;;;;;5093328;27;20048;-82
2022/01/30 00:33:36;;;;;;;22.10;3.72;;;;;;;;;;5098439;28;20047;-81
2022/01/30 00:36:02;;;;;;;20.50;4.93;;;;;;;;;;5098662;28;20583;-82
2022/01/30 00:38:28;;;;;;;25.90;3.83;;;;;;;;;;5100844;28;20050;-81
2022/01/30 00:40:54;;;;;;;22.55;4.63;;;;;;;;;;5090375;28;20108;-82
2022/01/30 00:43:20;;;;;;;31.33;6.30;;;;;;;;;;5102739;28;20035;-82
2022/01/30 00:45:47;;;;;;;21.48;4.57;;;6.00;1.00;;;;;;5092823;28;20043;-82
2022/01/30 00:48:13;;;;;;;28.48;5.00;;;;;;;;;;5098543;28;20811;-82
2022/01/30 00:50:40;;;;;;;24.58;4.07;;;;;;;;;;5088174;28;20032;-81
2022/01/30 00:53:07;;;;;;;28.10;4.93;;;;;;;;;;5074127;28;20511;-82
2022/01/30 00:55:33;;;;;;;25.27;5.05;;;;;;;;;;5076461;28;20087;-81
2022/01/30 00:57:59;;;;;;;34.55;5.85;;;;;;;;;;5092917;28;20052;-80
2022/01/30 01:00:26;;;;;;;26.63;4.85;;;6.10;1.00;;;;;;5094425;28;20074;-82
2022/01/30 01:02:53;;;;;;;34.75;4.88;;;6.50;1.00;;;;;;5097387;28;20152;-81
2022/01/30 01:05:19;;;;;;;27.65;5.38;;;;;;;;;;5095785;28;20451;-82
2022/01/30 01:07:48;;;;;;;30.20;5.05;;;;;;;;;;5089508;28;20126;-81
2022/01/30 01:23:20;;;;;;;17.98;3.97;;;6.60;99.90;;;;;;5098748;28;20047;-81
2022/01/30 01:23:47;;;;;;;30.73;4.80;;;;;;;;;;5106708;27;20050;-81
2022/01/30 01:26:14;;;;;;;22.23;5.38;;;;;;;;;;5096554;28;20497;-79
2022/01/30 01:28:40;;;;;;;30.92;4.40;;;;;;;;;;5094225;28;20595;-80
2022/01/30 01:31:06;;;;;;;19.98;5.80;;;;;;;;;;5098986;27;20046;-82
2022/01/30 01:34:07;;;;;;;20.95;4.85;;;;;;;;;;5089170;28;20444;-81
2022/01/30 01:36:19;;;;;;;37.50;6.43;;;;;;;;;;5096184;28;20052;-81
2022/01/30 01:38:46;;;;;;;23.90;5.50;;;;;;;;;;5075945;28;20043;-81
2022/01/30 01:41:14;;;;;;;26.55;5.50;;;;;;;;;;5095124;28;20074;-81
2022/01/30 01:43:41;;;;;;;23.13;4.65;;;;;;;;;;5099852;27;20122;-81
2022/01/30 01:46:14;;;;;;;21.75;4.47;;;;;;;;;;5095594;27;20043;-82
2022/01/30 01:48:43;;;;;;;16.30;3.92;;;;;;;;;;5096266;27;20039;-81
2022/01/30 01:51:17;;;;;;;29.52;6.28;;;7.10;1.00;;;;;;5086069;28;20119;-82
2022/01/30 01:53:44;;;;;;;33.03;6.97;;;;;;;;;;5094752;28;20096;-81
2022/01/30 01:56:10;;;;;;;25.55;5.90;;;;;;;;;;5090179;27;20048;-83
2022/01/30 01:58:36;;;;;;;28.10;5.47;;;;;;;;;;5092952;28;20078;-82
2022/01/30 02:01:03;;;;;;;32.08;6.50;;;;;;;;;;5078138;27;20051;-82
2022/01/30 02:03:29;;;;;;;27.52;6.28;;;;;;;;;;5097281;27;20044;-81
2022/01/30 02:06:00;;;;;;;25.73;5.60;;;;;;;;;;5088515;28;20885;-81
2022/01/30 02:11:13;;;;;;;30.30;5.45;;;;;;;;;;5112988;27;20560;-80
2022/01/30 02:27:15;;;;;;;28.48;5.97;;;;;;;;;;5089044;28;20043;-82
2022/01/30 02:29:42;;;;;;;24.58;5.25;;;;;;;;;;5071040;28;20120;-80
2022/01/30 02:32:08;;;;;;;24.25;4.70;;;;;;;;;;5089578;28;20112;-82
2022/01/30 02:34:34;;;;;;;27.85;5.47;;;;;;;;;;5096564;28;20050;-83
2022/01/30 02:37:01;;;;;;;16.77;3.75;;;;;;;;;;5087497;28;20044;-83
2022/01/30 02:39:27;;;;;;;23.83;4.70;;;;;;;;;;5091911;28;20080;-82
2022/01/30 02:41:54;;;;;;;21.95;4.35;;;;;;;;;;5096386;27;20044;-81
2022/01/30 02:44:25;;;;;;;37.15;7.18;;;;;;;;;;5097148;28;20245;-80
2022/01/30 02:46:55;;;;;;;31.85;5.18;;;;;;;;;;5090956;28;20364;-82
2022/01/30 02:52:00;;;;;;;29.58;5.28;;;6.40;1.00;;;;;;5100200;27;20240;-80
2022/01/30 02:54:27;;;;;;;29.80;5.05;;;;;;;;;;5090565;28;20043;-80
2022/01/30 02:56:53;;;;;;;28.10;5.03;;;;;;;;;;5080888;28;20122;-79
2022/01/30 02:59:20;;;;;;;25.75;6.20;;;;;;;;;;5074965;27;20077;-80
2022/01/30 03:01:46;;;;;;;46.63;6.45;;;;;;;;;;5088251;27;20487;-79
2022/01/30 03:04:12;;;;;;;36.40;7.13;;;;;;;;;;5097774;27;20130;-80
2022/01/30 03:06:38;;;;;;;35.83;5.88;;;6.40;99.90;;;;;;5099200;27;20039;-81
2022/01/30 03:09:06;;;;;;;25.08;5.93;;;;;;;;;;5092856;27;20462;-83
2022/01/30 03:11:32;;;;;;;28.77;5.72;;;;;;;;;;5098184;27;20031;-82
2022/01/30 03:13:59;;;;;;;24.42;5.03;;;;;;;;;;5096369;27;20122;-83
2022/01/30 03:16:25;;;;;;;26.52;6.40;;;;;;;;;;5092597;28;20043;-82
2022/01/30 03:18:51;;;;;;;33.05;6.75;;;;;;;;;;5079440;27;20043;-83
2022/01/30 03:21:17;;;;;;;31.63;7.28;;;;;;;;;;5094219;27;20043;-83
2022/01/30 03:23:44;;;;;;;29.33;6.22;;;;;;;;;;5096214;27;20043;-83
2022/01/30 03:26:11;;;;;;;35.03;7.70;;;;;;;;;;5098249;28;20042;-83
2022/01/30 03:28:39;;;;;;;34.28;7.55;;;;;;;;;;5100958;27;20225;-83
2022/01/30 03:31:08;;;;;;;36.33;5.97;;;;;;;;;;5079492;27;20551;-83
2022/01/30 03:33:34;;;;;;;37.53;6.60;;;;;;;;;;5085241;28;20035;-83
2022/01/30 03:36:00;;;;;;;29.20;6.72;;;;;;;;;;5092965;28;20110;-83
2022/01/30 03:38:27;;;;;;;37.00;7.63;;;;;;;;;;5098983;28;20031;-82
2022/01/30 03:40:53;;;;;;;39.42;7.95;;;;;;;;;;5078004;28;20070;-81
2022/01/30 03:43:19;;;;;;;39.67;7.40;;;;;;;;;;5085919;28;20071;-81
2022/01/30 03:45:46;;;;;;;24.05;5.47;;;;;;;;;;5097751;28;20373;-81
2022/01/30 03:48:13;;;;;;;28.17;6.25;;;;;;;;;;5090193;28;20438;-82
2022/01/30 03:50:39;;;;;;;34.55;8.82;;;;;;;;;;5079076;28;20043;-81
2022/01/30 03:53:06;;;;;;;36.75;7.05;;;;;;;;;;5094486;27;20458;-82
2022/01/30 03:55:32;;;;;;;22.60;5.80;;;;;;;;;;5094931;28;20124;-82
2022/01/30 03:57:58;;;;;;;34.08;6.55;;;;;;;;;;5092817;28;20385;-82
2022/01/30 04:00:24;;;;;;;27.70;7.35;;;;;;;;;;5092610;28;20415;-81
2022/01/30 04:02:50;;;;;;;35.67;7.55;;;;;;;;;;5107927;28;20066;-80
2022/01/30 04:05:17;;;;;;;28.67;8.18;;;;;;;;;;5093908;28;20390;-81
2022/01/30 04:07:45;;;;;;;30.15;6.20;;;;;;;;;;5088916;28;20051;-82
2022/01/30 04:10:11;;;;;;;25.27;5.78;;;;;;;;;;5089793;27;20463;-81
2022/01/30 04:12:37;;;;;;;32.00;7.30;;;;;;;;;;5093649;28;20096;-81
2022/01/30 04:15:04;;;;;;;24.98;5.53;;;;;;;;;;5081134;28;20035;-79
2022/01/30 04:17:31;;;;;;;36.85;7.97;;;;;;;;;;5091861;28;20513;-81
2022/01/30 04:19:57;;;;;;;27.60;5.60;;;;;;;;;;5093725;28;20583;-81
2022/01/30 04:22:23;;;;;;;28.70;6.60;;;;;;;;;;5101783;28;20122;-82
2022/01/30 04:24:49;;;;;;;22.15;5.20;;;;;;;;;;5101959;28;20080;-81
2022/01/30 04:27:15;;;;;;;27.23;6.18;;;;;;;;;;5089854;27;20043;-81
2022/01/30 04:29:41;;;;;;;26.55;6.72;;;;;;;;;;5078003;27;20061;-83
2022/01/30 04:32:08;;;;;;;24.10;6.38;;;;;;;;;;5100085;27;20044;-81
2022/01/30 04:34:35;;;;;;;31.52;5.63;;;;;;;;;;5086379;27;20039;-81
2022/01/30 04:37:03;;;;;;;31.48;5.82;;;;;;;;;;5100509;27;20385;-82
2022/01/30 04:42:26;;;;;;;28.38;6.03;;;;;;;;;;5118460;27;20051;-81
2022/01/30 04:53:15;;;;;;;35.80;7.43;;;;;;;;;;5100736;28;20186;-81
2022/01/30 04:58:29;;;;;;;35.13;6.80;;;;;;;;;;5120082;27;20147;-81
2022/01/30 05:01:21;;;;;;;33.58;8.70;;;;;;;;;;5082974;27;20051;-81
2022/01/30 05:06:17;;;;;;;27.52;7.72;;;;;;;;;;5119149;27;20058;-81
2022/01/30 05:08:43;;;;;;;27.67;6.45;;;;;;;;;;5098202;27;20060;-81
2022/01/30 05:11:10;;;;;;;30.23;6.50;;;;;;;;;;5096428;27;20119;-82
2022/01/30 05:13:42;;;;;;;31.95;6.45;;;;;;;;;;5077412;27;20039;-81
2022/01/30 05:16:08;;;;;;;28.17;5.45;;;;;;;;;;5095181;27;20043;-82
2022/01/30 05:18:35;;;;;;;25.15;6.75;;;;;;;;;;5099090;27;20040;-81
2022/01/30 05:21:02;;;;;;;22.38;6.32;;;;;;;;;;5102938;27;20034;-81
2022/01/30 05:23:28;;;;;;;38.55;7.95;;;6.50;69.60;;;;;;5095555;27;20378;-82
2022/01/30 05:25:54;;;;;;;33.78;7.53;;;;;;;;;;5100056;27;20446;-80
2022/01/30 05:28:22;;;;;;;19.90;6.22;;;6.30;1.00;;;;;;5100360;27;21111;-82
2022/01/30 05:30:49;;;;;;;27.88;5.57;;;;;;;;;;5078179;27;20401;-82
2022/01/30 05:33:15;;;;;;;24.75;5.95;;;;;;;;;;5099723;27;20031;-82
2022/01/30 05:35:41;;;;;;;26.17;6.53;;;;;;;;;;5095782;27;20051;-82
2022/01/30 05:38:08;;;;;;;25.35;6.82;;;;;;;;;;5077574;28;20130;-81
2022/01/30 05:40:37;;;;;;;27.20;5.43;;;;;;;;;;5095719;27;20047;-81
2022/01/30 05:43:04;;;;;;;25.30;5.78;;;;;;;;;;5101713;27;20468;-82
2022/01/30 05:45:41;;;;;;;30.00;6.22;;;;;;;;;;5093617;28;20498;-81
2022/01/30 05:48:15;;;;;;;29.30;6.72;;;;;;;;;;5098709;28;20083;-82
2022/01/30 05:50:42;;;;;;;31.05;7.07;;;;;;;;;;5078768;27;20054;-80
2022/01/30 05:53:09;;;;;;;30.10;6.45;;;;;;;;;;5078440;28;20043;-82
2022/01/30 05:55:35;;;;;;;33.13;6.78;;;;;;;;;;5080360;27;20164;-81
2022/01/30 05:58:01;;;;;;;33.55;6.10;;;;;;;;;;5095655;28;20126;-83
2022/01/30 06:00:28;;;;;;;35.55;7.50;;;;;;;;;;5091795;28;20052;-82
2022/01/30 06:02:54;;;;;;;32.95;6.65;;;;;;;;;;5094291;28;20048;-83
2022/01/30 06:05:23;;;;;;;30.67;6.93;;;;;;;;;;5097949;28;20051;-82
2022/01/30 06:08:08;;;;;;;36.90;8.27;;;;;;;;;;5100175;28;20500;-83
2022/01/30 06:10:34;;;;;;;33.78;6.43;;;;;;;;;;5087725;28;20142;-82
2022/01/30 06:13:00;;;;;;;40.85;6.43;;;;;;;;;;5088604;28;20113;-82
2022/01/30 06:15:27;;;;;;;30.00;7.53;;;;;;;;;;5087481;28;20433;-83
2022/01/30 06:17:53;;;;;;;29.30;6.45;;;;;;;;;;5093889;27;20044;-83
2022/01/30 06:20:19;;;;;;;36.83;7.72;;;;;;;;;;5095476;28;20039;-83
2022/01/30 06:22:45;;;;;;;38.67;6.63;;;;;;;;;;5081722;28;20047;-81
2022/01/30 06:25:11;;;;;;;36.75;7.93;;;;;;;;;;5090810;28;20816;-82
2022/01/30 06:27:37;;;;;;;24.83;5.43;;;;;;;;;;5088208;28;20075;-83
2022/01/30 06:30:06;;;;;;;31.30;6.00;;;6.80;1.00;;;;;;5092902;28;20088;-82
2022/01/30 06:32:32;;;;;;;31.38;5.97;;;;;;;;;;5087849;28;20136;-82
2022/01/30 06:34:58;;;;;;;28.15;8.25;;;;;;;;;;5096988;28;20099;-83
2022/01/30 06:37:25;;;;;;;43.00;9.65;;;;;;;;;;5094379;28;20058;-83
2022/01/30 06:39:51;;;;;;;31.85;5.75;;;;;;;;;;5097863;28;20313;-83
2022/01/30 06:42:18;;;;;;;41.35;7.43;;;;;;;;;;5076268;28;20589;-84
2022/01/30 06:44:44;;;;;;;35.92;7.55;;;;;;;;;;5092402;28;20036;-83
2022/01/30 06:47:11;;;;;;;24.27;6.18;;;;;;;;;;5079595;28;20116;-82
2022/01/30 06:49:37;;;;;;;35.42;8.38;;;;;;;;;;5095051;27;20040;-82
2022/01/30 06:52:06;;;;;;;31.55;7.30;;;;;;;;;;5092240;27;20043;-83
2022/01/30 06:54:32;;;;;;;39.85;8.75;;;;;;;;;;5092230;28;20122;-84
2022/01/30 06:56:58;;;;;;;30.85;7.60;;;;;;;;;;5087882;28;20055;-83
2022/01/30 06:59:24;;;;;;;26.02;5.95;;;;;;;;;;5095278;28;20154;-82
2022/01/30 07:01:56;;;;;;;37.80;8.07;;;;;;;;;;5089442;27;20512;-82
2022/01/30 07:04:22;;;;;;;38.67;7.88;;;;;;;;;;5077772;28;20040;-82
2022/01/30 07:06:48;;;;;;;30.55;6.68;;;;;;;;;;5095168;28;20043;-82
2022/01/30 07:09:14;;;;;;;38.42;6.25;;;;;;;;;;5077743;28;20074;-83
2022/01/30 07:11:41;;;;;;;32.33;7.85;;;;;;;;;;5096514;27;20031;-82
2022/01/30 07:14:07;;;;;;;32.55;6.85;;;;;;;;;;5095675;27;20043;-83
2022/01/30 07:16:33;;;;;;;42.33;8.40;;;;;;;;;;5083548;27;20051;-83
2022/01/30 07:18:59;;;;;;;37.55;6.38;;;;;;;;;;5094788;28;20218;-82
2022/01/30 07:21:25;;;;;;;46.03;8.93;;;;;;;;;;5097296;27;20043;-83
2022/01/30 07:23:51;;;;;;;37.53;8.27;;;;;;;;;;5094336;28;20043;-83
2022/01/30 07:26:18;;;;;;;40.72;6.97;;;;;;;;;;5096609;28;20039;-82
2022/01/30 07:28:44;;;;;;;44.53;7.45;;;;;;;;;;5100576;27;20077;-82
2022/01/30 07:31:10;;;;;;;42.30;8.18;;;;;;;;;;5085904;28;20531;-83
2022/01/30 07:33:39;;;;;;;48.03;8.70;;;;;;;;;;5070947;28;20081;-84
2022/01/30 07:36:07;;;;;;;35.30;7.05;;;;;;;;;;5097272;28;20406;-82
2022/01/30 07:38:34;;;;;;;26.52;6.22;;;;;;;;;;5082454;28;20316;-81
2022/01/30 07:41:00;;;;;;;36.97;8.90;;;;;;;;;;5092589;28;20043;-82
2022/01/30 07:43:26;;;;;;;35.78;6.85;;;;;;;;;;5095658;28;20046;-82
2022/01/30 07:45:52;;;;;;;36.13;8.50;;;;;;;;;;5101053;28;20385;-82
2022/01/30 07:48:19;;;;;;;37.45;7.82;;;;;;;;;;5092497;28;20054;-83
2022/01/30 07:50:45;;;;;;;32.10;6.05;;;;;;;;;;5092800;28;20415;-83
2022/01/30 07:53:11;;;;;;;33.90;7.55;;;;;;;;;;5081731;28;20039;-84
2022/01/30 07:55:37;;;;;;;32.75;9.07;;;;;;;;;;5094038;28;20075;-83
2022/01/30 07:58:03;;;;;;;20.58;5.28;;;;;;;;;;5076688;28;20441;-83
2022/01/30 08:00:29;;;;;;;25.08;5.18;;;;;;;;;;5100267;28;20086;-85
2022/01/30 08:02:55;;;;;;;27.50;5.18;;;;;;;;;;5092581;28;20058;-86
2022/01/30 08:05:21;;;;;;;25.88;5.80;;;;;;;;;;5111656;28;20067;-83
2022/01/30 08:07:48;;;;;;;29.85;6.55;;;;;;;;;;5093608;28;20075;-84
2022/01/30 08:10:14;;;;;;;27.92;5.40;;;;;;;;;;5078021;28;20152;-84
2022/01/30 08:12:40;;;;;;;35.38;6.90;;;;;;;;;;5098012;28;20057;-82
2022/01/30 08:15:06;;;;;;;30.55;6.38;;;;;;;;;;5094124;28;20052;-82
2022/01/30 08:17:35;;;;;;;27.15;5.70;;;;;;;;;;5095856;27;20557;-82
2022/01/30 08:20:01;;;;;;;31.35;5.93;;;;;;;;;;5086049;28;20444;-83
2022/01/30 08:22:30;;;;;;;27.05;5.80;;;;;;;;;;5102446;28;20073;-80
2022/01/30 08:24:56;;;;;;;37.60;6.88;;;;;;;;;;5084750;28;20517;-80
2022/01/30 08:27:22;;;;;;;26.13;6.53;;;;;;;;;;5085414;28;20049;-81
2022/01/30 08:29:48;;;;;;;27.65;5.70;;;;;;;;;;5095192;28;20548;-81
2022/01/30 08:32:15;;;;;;;25.20;5.47;;;;;;;;;;5079385;28;20626;-83
2022/01/30 08:34:41;;;;;;;34.15;6.18;;;;;;;;;;5082359;28;20044;-81
2022/01/30 08:37:08;;;;;;;33.72;6.38;;;;;;;;;;5099399;28;20039;-82
2022/01/30 08:39:34;;;;;;;35.63;6.63;;;6.40;1.00;;;;;;5071223;28;20043;-81
2022/01/30 08:42:01;;;;;;;34.03;7.15;;;;;;;;;;5093933;28;20035;-83
2022/01/30 08:44:27;;;;;;;25.55;5.65;;;;;;;;;;5088582;28;20044;-85
2022/01/30 08:46:53;;;;;;;35.15;5.80;;;;;;;;;;5093426;28;20043;-84
2022/01/30 08:49:19;;;;;;;32.95;7.05;;;;;;;;;;5094073;28;20027;-83
2022/01/30 08:51:46;;;;;;;29.65;6.28;;;;;;;;;;5100935;27;20059;-84
2022/01/30 08:54:12;;;;;;;37.60;6.60;;;;;;;;;;5084833;28;20135;-84
2022/01/30 08:56:39;;;;;;;44.17;6.50;;;;;;;;;;5075169;28;20055;-84
2022/01/30 08:59:06;;;;;;;38.53;7.07;;;;;;;;;;5099614;28;20070;-84
2022/01/30 09:01:33;;;;;;;35.50;8.13;;;;;;;;;;5090222;28;20063;-83
2022/01/30 09:03:59;;;;;;;28.20;5.75;;;;;;;;;;5089176;28;20228;-84
2022/01/30 09:06:26;;;;;;;39.92;8.18;;;;;;;;;;5080650;28;20406;-84
2022/01/30 09:08:52;;;;;;;35.42;6.78;;;;;;;;;;5097742;28;20193;-84
2022/01/30 09:11:18;;;;;;;34.38;6.38;;;;;;;;;;5092102;28;20040;-83
2022/01/30 09:13:44;;;;;;;35.25;6.20;;;;;;;;;;5094072;28;20039;-84
2022/01/30 09:16:10;;;;;;;25.60;6.03;;;;;;;;;;5093862;27;20043;-83
2022/01/30 09:18:38;;;;;;;43.05;7.53;;;;;;;;;;5078554;28;20036;-83
2022/01/30 09:21:04;;;;;;;40.95;6.50;;;;;;;;;;5090750;28;20106;-83
2022/01/30 09:23:30;;;;;;;35.05;6.35;;;;;;;;;;5081912;28;20050;-83
2022/01/30 09:25:56;;;;;;;43.80;7.70;;;;;;;;;;5092589;28;20118;-84
2022/01/30 09:28:23;;;;;;;36.10;6.85;;;;;;;;;;5098821;28;20036;-83
2022/01/30 09:30:49;;;;;;;29.05;6.07;;;;;;;;;;5091320;28;20040;-82
2022/01/30 09:33:15;;;;;;;48.85;7.68;;;;;;;;;;5098797;28;20105;-83
2022/01/30 09:35:42;;;;;;;30.58;5.53;;;;;;;;;;5097891;28;20812;-83
2022/01/30 09:38:08;;;;;;;29.10;5.72;;;;;;;;;;5097550;28;20046;-83
2022/01/30 09:40:34;;;;;;;25.05;4.80;;;;;;;;;;5099499;28;20062;-83
2022/01/30 09:43:00;;;;;;;32.50;6.57;;;;;;;;;;5079319;28;20093;-82
2022/01/30 09:45:28;;;;;;;26.35;5.00;;;8.70;1.00;;;;;;5085089;28;20035;-82
2022/01/30 09:47:55;;;;;;;29.15;6.30;;;;;;;;;;5096201;28;20036;-82
2022/01/30 09:50:22;;;;;;;39.95;7.55;;;;;;;;;;5093762;28;20039;-82
2022/01/30 09:52:48;;;;;;;37.53;6.55;;;;;;;;;;5101500;28;20084;-82
2022/01/30 09:55:15;;;;;;;35.17;7.97;;;;;;;;;;5093254;28;20524;-82
2022/01/30 09:57:43;;;;;;;25.17;5.35;;;;;;;;;;5090351;28;20094;-82
2022/01/30 10:00:10;;;;;;;30.17;6.50;;;;;;;;;;5094508;28;20093;-82
2022/01/30 10:02:36;;;;;;;22.67;4.65;;;;;;;;;;5102409;27;20077;-82
2022/01/30 10:05:02;;;;;;;27.40;4.97;;;;;;;;;;5092087;28;20050;-82
2022/01/30 10:07:43;;;;;;;28.52;5.78;;;;;;;;;;5092840;27;20039;-82
2022/01/30 10:10:11;;;;;;;28.17;5.78;;;;;;;;;;5099585;27;20050;-82
2022/01/30 10:12:57;;;;;;;36.63;7.40;;;;;;;;;;5102124;27;20037;-82
2022/01/30 10:15:25;;;;;;;34.75;5.03;;;;;;;;;;5090751;27;20035;-82
2022/01/30 10:17:51;;;;;;;27.20;6.10;;;;;;;;;;5105843;27;20482;-83
2022/01/30 10:20:22;;;;;;;31.73;5.68;;;;;;;;;;5093966;28;20039;-82
2022/01/30 10:22:52;;;;;;;36.85;6.32;;;;;;;;;;5099708;27;20047;-82
2022/01/30 10:25:28;;;;;;;32.25;5.82;;;;;;;;;;5085885;27;20179;-82
2022/01/30 10:28:06;;;;;;;33.25;6.20;;;;;;;;;;5097966;27;20043;-82
2022/01/30 10:30:40;;;;;;;23.27;5.15;;;;;;;;;;5089349;27;20050;-82
2022/01/30 10:33:08;;;;;;;21.75;4.85;;;;;;;;;;5101580;27;20082;-83
2022/01/30 10:35:54;;;;;;;30.58;5.88;;;;;;;;;;5098563;28;20055;-82
2022/01/30 10:38:23;;;;;;;17.65;3.63;;;;;;;;;;5095008;27;20479;-82
2022/01/30 10:41:10;;;;;;;22.55;5.40;;;10.40;1.00;;;;;;5080923;27;20047;-81
2022/01/30 10:43:55;;;;;;;28.45;5.95;;;;;;;;;;5096336;27;20047;-84
2022/01/30 10:46:22;;;;;;;18.50;4.65;;;;;;;;;;5089222;27;20039;-81
2022/01/30 10:48:56;;;;;;;20.83;4.30;;;;;;;;;;5071627;27;20078;-80
2022/01/30 10:51:23;;;;;;;29.38;4.88;;;;;;;;;;5098080;27;20043;-80
2022/01/30 10:53:51;;;;;;;23.30;4.68;;;;;;;;;;5097513;27;20043;-79
2022/01/30 10:56:21;;;;;;;28.95;5.32;;;;;;;;;;5092410;27;20188;-80
2022/01/30 10:59:06;;;;;;;35.78;5.03;;;;;;;;;;5100144;27;20067;-79
2022/01/30 11:01:33;;;;;;;28.00;4.38;;;;;;;;;;5090597;28;20071;-79
2022/01/30 11:04:00;;;;;;;24.35;4.55;;;;;;;;;;5087194;27;20035;-79
2022/01/30 11:06:36;;;;;;;20.83;4.40;;;9.70;1.00;;;;;;5091582;27;20031;-78
2022/01/30 11:09:06;;;;;;;19.95;4.35;;;;;;;;;;5088250;27;20043;-78
2022/01/30 11:11:42;;;;;;;24.52;4.68;;;;;;;;;;5091518;27;20039;-79
2022/01/30 11:19:21;;;;;;;24.05;4.50;;;;;;;;;;5092227;27;20051;-78
2022/01/30 11:22:08;;;;;;;23.42;5.18;;;;;;;;;;5081448;27;20446;-78
2022/01/30 11:24:35;;;;;;;28.40;5.63;;;;;;;;;;5084363;27;20039;-78
2022/01/30 11:27:03;;;;;;;22.00;4.95;;;;;;;;;;5099568;27;20767;-79
2022/01/30 11:29:30;;;;;;;28.60;4.90;;;;;;;;;;5099253;28;20482;-79
2022/01/30 11:31:56;;;;;;;27.15;5.15;;;;;;;;;;5094549;28;20073;-78
2022/01/30 11:34:24;;;;;;;27.70;6.15;;;;;;;;;;5073138;28;20042;-78
2022/01/30 11:36:50;;;;;;;26.83;4.55;;;;;;;;;;5078512;28;20042;-78
2022/01/30 11:39:18;;;;;;;24.83;5.05;;;;;;;;;;5093915;28;20043;-78
2022/01/30 11:42:06;;;;;;;32.78;5.40;;;9.40;1.00;;;;;;5098876;28;20039;-79
2022/01/30 11:44:33;;;;;;;25.38;5.15;;;;;;;;;;5076080;27;20038;-78
2022/01/30 11:47:02;;;;;;;27.23;5.80;;;;;;;;;;5078625;28;20126;-78
2022/01/30 11:49:39;;;;;;;28.95;5.65;;;;;;;;;;5095871;28;20032;-78
2022/01/30 11:52:06;;;;;;;18.20;4.70;;;;;;;;;;5090738;28;20039;-78
2022/01/30 11:54:33;;;;;;;29.88;5.78;;;;;;;;;;5090546;28;20560;-78
2022/01/30 11:56:59;;;;;;;16.05;3.55;;;;;;;;;;5085911;28;20522;-78
2022/01/30 11:59:36;;;;;;;31.48;5.80;;;;;;;;;;5097520;28;20100;-78
2022/01/30 12:02:21;;;;;;;25.55;4.60;;;;;;;;;;5088520;28;20556;-78
2022/01/30 12:04:59;;;;;;;26.45;5.03;;;;;;;;;;5082454;28;20487;-78
2022/01/30 12:07:35;;;;;;;32.03;4.45;;;;;;;;;;5088554;28;20035;-78
2022/01/30 12:10:30;;;;;;;27.90;6.72;;;;;;;;;;5087899;28;20042;-78
2022/01/30 12:13:01;;;;;;;24.95;5.13;;;;;;;;;;5064840;28;20047;-77
2022/01/30 12:15:38;;;;;;;26.33;4.53;;;;;;;;;;5086514;28;20047;-79
2022/01/30 12:18:05;;;;;;;21.63;3.95;;;;;;;;;;5098748;28;20633;-79
2022/01/30 12:20:51;;;;;;;21.95;4.32;;;;;;;;;;5090151;28;20039;-79
2022/01/30 12:23:31;;;;;;;19.65;4.40;;;;;;;;;;5096654;28;20054;-79
2022/01/30 12:26:04;;;;;;;33.50;5.65;;;;;;;;;;5091441;28;20130;-80
2022/01/30 12:28:49;;;;;;;33.67;6.30;;;10.40;1.00;;;;;;5092719;28;20560;-79
2022/01/30 12:31:25;;;;;;;29.80;4.45;;;;;;;;;;5072476;28;20043;-80
2022/01/30 12:34:02;;;;;;;31.40;5.50;;;;;;;;;;5095007;28;20385;-80
2022/01/30 12:36:30;;;;;;;35.38;4.93;;;;;;;;;;5065710;28;20148;-79
2022/01/30 12:38:58;;;;;;;34.17;5.45;;;;;;;;;;5087203;28;20548;-79
2022/01/30 12:41:26;;;;;;;32.35;4.78;;;9.00;1.00;;;;;;5075716;28;20043;-80
2022/01/30 12:43:54;;;;;;;36.28;5.65;;;8.60;1.00;;;;;;5076262;28;20510;-79
2022/01/30 12:46:23;;;;;;;31.55;5.60;;;8.50;1.00;;;;;;5087338;28;20075;-79
2022/01/30 12:49:09;;;;;;;34.38;6.57;;;;;;;;;;5088370;28;20074;-79
2022/01/30 12:51:36;;;;;;;36.50;5.35;;;;;;;;;;5088067;27;20044;-78
2022/01/30 12:54:02;;;;;;;31.05;5.30;;;;;;;;;;5077450;28;20040;-78
2022/01/30 12:56:29;;;;;;;28.85;5.05;;;8.00;1.00;;;;;;5074139;28;20062;-78
2022/01/30 12:58:56;;;;;;;24.80;3.75;;;;;;;;;;5088053;28;20050;-79
2022/01/30 13:01:27;;;;;;;29.45;4.05;;;;;;;;;;5093712;28;20146;-78
2022/01/30 13:04:02;;;;;;;26.38;4.82;;;;;;;;;;5079988;28;20075;-79
2022/01/30 13:06:33;;;;;;;27.73;5.47;;;;;;;;;;5087527;28;20042;-78
2022/01/30 13:08:59;;;;;;;30.48;4.75;;;;;;;;;;5091593;28;20069;-79
2022/01/30 13:11:25;;;;;;;22.38;4.13;;;;;;;;;;5087917;28;20460;-78
2022/01/30 13:13:57;;;;;;;29.80;5.72;;;;;;;;;;5082919;28;20064;-79
2022/01/30 13:16:44;;;;;;;33.33;5.30;;;;;;;;;;5071782;28;20036;-78
2022/01/30 13:19:11;;;;;;;28.70;5.05;;;;;;;;;;5090492;28;20039;-80
2022/01/30 13:21:38;;;;;;;28.27;4.80;;;;;;;;;;5077350;28;20028;-80
2022/01/30 13:24:05;;;;;;;33.75;4.82;;;;;;;;;;5088000;28;20043;-81
2022/01/30 13:26:31;;;;;;;31.40;4.88;;;;;;;;;;5071637;28;20071;-80
2022/01/30 13:28:58;;;;;;;36.70;5.70;;;;;;;;;;5093683;27;20043;-81
2022/01/30 13:31:25;;;;;;;30.20;5.90;;;;;;;;;;5073512;27;20046;-81
2022/01/30 13:34:09;;;;;;;27.98;6.40;;;8.20;1.00;;;;;;5070110;28;20431;-80
2022/01/30 13:36:35;;;;;;;30.48;5.50;;;;;;;;;;5092144;28;20395;-79
2022/01/30 13:39:06;;;;;;;25.30;4.30;;;;;;;;;;5088795;28;20036;-79
2022/01/30 13:41:42;;;;;;;30.63;5.53;;;;;;;;;;5091572;28;20705;-81
2022/01/30 13:44:21;;;;;;;37.85;5.32;;;;;;;;;;5090907;28;20039;-79
2022/01/30 13:47:03;;;;;;;27.27;5.05;;;;;;;;;;5091028;28;20131;-79
2022/01/30 13:49:30;;;;;;;36.03;4.95;;;;;;;;;;5087041;28;20422;-80
2022/01/30 13:52:09;;;;;;;20.52;3.55;;;;;;;;;;5095953;27;20036;-79
2022/01/30 13:54:39;;;;;;;23.95;4.32;;;;;;;;;;5096434;28;20035;-81
2022/01/30 13:57:10;;;;;;;34.80;5.05;;;;;;;;;;5091291;28;20517;-81
2022/01/30 13:59:36;;;;;;;24.77;3.95;;;;;;;;;;5077694;28;20050;-84
2022/01/30 14:02:04;;;;;;;25.23;4.45;;;;;;;;;;5079171;28;20075;-79
2022/01/30 14:04:34;;;;;;;38.25;5.07;;;;;;;;;;5086556;28;20493;-79
2022/01/30 14:07:01;;;;;;;29.23;5.15;;;;;;;;;;5081498;28;20096;-79
2022/01/30 14:09:48;;;;;;;31.20;6.97;;;;;;;;;;5090279;28;20090;-79
2022/01/30 14:12:15;;;;;;;26.27;4.55;;;;;;;;;;5091881;28;20504;-79
2022/01/30 14:14:41;;;;;;;21.77;4.97;;;;;;;;;;5088799;28;20053;-79
2022/01/30 14:17:11;;;;;;;32.17;5.95;;;;;;;;;;5094231;27;20040;-80
2022/01/30 14:19:52;;;;;;;29.90;5.40;;;;;;;;;;5080826;28;20081;-80
2022/01/30 14:22:20;;;;;;;25.23;4.72;;;;;;;;;;5073300;28;20039;-79
2022/01/30 14:24:57;;;;;;;35.08;5.63;;;;;;;;;;5090859;28;20500;-79
2022/01/30 14:27:24;;;;;;;35.92;6.93;;;;;;;;;;5093524;28;20044;-80
2022/01/30 14:29:55;;;;;;;38.58;6.55;;;;;;;;;;5085492;28;20036;-79
2022/01/30 14:32:21;;;;;;;34.85;4.95;;;;;;;;;;5074090;28;20408;-79
2022/01/30 14:34:51;;;;;;;35.22;5.85;;;;;;;;;;5075122;28;20078;-79
2022/01/30 14:37:18;;;;;;;34.30;5.63;;;;;;;;;;5087499;28;20039;-79
2022/01/30 14:39:45;;;;;;;29.60;5.53;;;;;;;;;;5090536;28;20099;-79
2022/01/30 14:42:14;;;;;;;38.63;5.35;;;;;;;;;;5071629;28;20172;-78
2022/01/30 14:44:41;;;;;;;27.70;5.55;;;;;;;;;;5072248;28;20044;-80
2022/01/30 14:47:09;;;;;;;31.45;5.32;;;;;;;;;;5071140;28;20047;-81
2022/01/30 14:49:36;;;;;;;20.80;4.53;;;;;;;;;;5089747;28;20047;-80
2022/01/30 14:52:03;;;;;;;24.75;4.68;;;;;;;;;;5089412;28;20499;-80
2022/01/30 14:54:29;;;;;;;26.58;4.15;;;;;;;;;;5092482;28;20443;-80
2022/01/30 14:56:55;;;;;;;34.78;5.07;;;;;;;;;;5088677;28;20040;-80
2022/01/30 14:59:22;;;;;;;30.35;6.22;;;;;;;;;;5093627;28;20040;-80
2022/01/30 15:01:48;;;;;;;32.95;5.80;;;;;;;;;;5094921;28;20250;-80
2022/01/30 15:04:14;;;;;;;47.10;6.50;;;7.50;1.00;;;;;;5085761;28;20064;-81
2022/01/30 15:06:40;;;;;;;34.80;5.57;;;7.20;1.00;;;;;;5069392;28;20043;-80
2022/01/30 15:09:07;;;;;;;23.67;5.15;;;;;;;;;;5091526;28;20564;-80
2022/01/30 15:11:33;;;;;;;33.42;5.43;;;;;;;;;;5070287;28;20386;-80
2022/01/30 15:13:59;;;;;;;27.30;5.20;;;;;;;;;;5091024;28;20100;-80
2022/01/30 15:16:40;;;;;;;31.30;5.63;;;;;;;;;;5092908;27;20051;-79
2022/01/30 15:19:11;;;;;;;39.33;5.70;;;;;;;;;;5068989;28;20048;-79
2022/01/30 15:21:37;;;;;;;34.17;5.57;;;;;;;;;;5089907;28;20496;-78
2022/01/30 15:24:04;;;;;;;51.53;6.18;;;;;;;;;;5074185;28;20118;-78
2022/01/30 15:26:30;;;;;;;34.00;6.00;;;;;;;;;;5090156;28;20040;-79